Flight Track Log - Related Links

Times and Time Zones

All times are in EST time to prevent confusion due to time zone crossing. See the SKW6492 flight status page for this flight to view local times or setup timezone preferences in your user account.

Time Position Orientation Groundspeed Altitude Reporting Facility
EST Latitude Longitude Course Direction KTS MPH feet Rate Location/Type
Wed 10:13:48 PM 39.9333 -104.6833 10° North 215 247 7,200  Level Denver TRACON
Wed 10:15:06 PM 40.0319 -104.6611 10° North 271 312 10,300 2,245 Climbing Denver Center
Wed 10:16:07 PM 40.1125 -104.6728 354° North 295 339 12,400 1,854 Climbing Denver Center
Wed 10:17:09 PM 40.1986 -104.6953 349° North 314 361 14,100 1,756 Climbing Denver Center
Wed 10:18:10 PM 40.2947 -104.7208 349° North 326 375 16,000 1,756 Climbing Denver Center
Wed 10:19:12 PM 40.3886 -104.7456 349° North 343 395 17,700 1,561 Climbing Denver Center
Wed 10:20:13 PM 40.4833 -104.7706 349° North 348 400 19,200 1,574 Climbing Denver Center
Wed 10:21:14 PM 40.5822 -104.7953 349° North 364 419 20,900 1,610 Climbing Denver Center
Wed 10:22:16 PM 40.6742 -104.8189 349° North 347 399 22,500 1,317 Climbing Denver Center
Wed 10:23:17 PM 40.7722 -104.8442 349° North 357 411 23,600 1,082 Climbing Denver Center
Wed 10:24:18 PM 40.8675 -104.8883 341° North 362 417 24,700 1,122 Climbing Denver Center
Wed 10:25:20 PM 40.9836 -104.9456 340° North 371 427 25,900 976 Climbing Denver Center
Wed 10:26:21 PM 41.0733 -104.9911 339° North 374 430 26,700 885 Climbing Denver Center
Wed 10:27:22 PM 41.1850 -105.0431 341° North 379 436 27,700 927 Climbing Denver Center
Wed 10:28:24 PM 41.2806 -105.0917 339° North 383 441 28,600 829 Climbing Denver Center
Wed 10:29:25 PM 41.3753 -105.1389 339° North 381 438 29,400 787 Climbing Denver Center
Wed 10:30:26 PM 41.4858 -105.1933 340° North 380 437 30,200 738 Climbing Denver Center
Wed 10:31:27 PM 41.5778 -105.2483 336° Northwest 377 434 30,900 738 Climbing Denver Center
Wed 10:32:28 PM 41.6658 -105.3450 321° Northwest 369 425 31,700 537 Climbing Denver Center
Wed 10:33:30 PM 41.7408 -105.4258 321° Northwest 365 420 32,000 146 Climbing Denver Center
Wed 10:34:31 PM 41.8178 -105.5097 321° Northwest 370 426 32,000  Level Denver Center
Wed 10:35:32 PM 41.9086 -105.6075 321° Northwest 373 429 32,000  Level Denver Center
Wed 10:36:45 PM 41.9856 -105.6922 321° Northwest 374 430 32,000  Level Denver Center
Wed 10:37:47 PM 42.0878 -105.8042 321° Northwest 371 427 32,000  Level Denver Center
Wed 10:38:48 PM 42.1622 -105.8889 320° Northwest 369 425 32,000  Level Denver Center
Wed 10:39:49 PM 42.2397 -105.9731 321° Northwest 371 427 32,000  Level Denver Center
Wed 10:40:50 PM 42.3281 -106.0708 321° Northwest 368 423 32,000  Level Denver Center
Wed 10:41:51 PM 42.4025 -106.1547 320° Northwest 365 420 32,000  Level Denver Center
Wed 10:42:52 PM 42.4767 -106.2347 322° Northwest 359 413 32,000  Level Denver Center
Wed 10:43:54 PM 42.5589 -106.3297 320° Northwest 352 405 32,000  Level Denver Center
Wed 10:44:55 PM 42.6317 -106.4128 320° Northwest 356 410 32,000  Level Denver Center
Wed 10:45:56 PM 42.7192 -106.5106 321° Northwest 363 418 32,000  Level Denver Center
Wed 10:46:57 PM 42.7931 -106.5958 320° Northwest 364 419 32,000  Level Denver Center
Wed 10:47:58 PM 42.8692 -106.6808 321° Northwest 367 422 32,000  Level Denver Center
Wed 10:49:00 PM 42.9586 -106.7825 320° Northwest 374 430 32,000  Level Denver Center
Wed 10:50:01 PM 43.0347 -106.8708 320° Northwest 377 434 32,000  Level Denver Center
Wed 10:50:51 PM 43.1053 -106.9522 320° Northwest 378 435 32,000  Level Salt Lake Center
Wed 10:51:52 PM 43.1811 -107.0433 319° Northwest 366 421 32,000  Level Salt Lake Center
Wed 10:52:53 PM 43.2575 -107.1311 320° Northwest 360 414 32,000  Level Salt Lake Center
Wed 10:53:55 PM 43.3322 -107.2186 320° Northwest 356 410 32,000  Level Salt Lake Center
Wed 10:54:56 PM 43.4081 -107.3069 320° Northwest 357 411 32,000  Level Salt Lake Center
Wed 10:55:57 PM 43.4872 -107.3900 323° Northwest 359 413 32,000  Level Salt Lake Center
Wed 10:56:59 PM 43.5661 -107.4797 321° Northwest 363 418 32,000  Level Salt Lake Center
Wed 10:58:00 PM 43.6453 -107.5711 320° Northwest 369 425 32,000  Level Salt Lake Center
Wed 10:59:01 PM 43.7411 -107.6828 320° Northwest 374 430 32,000 -244 Level Salt Lake Center
Wed 11:00:03 PM 43.8219 -107.7778 320° Northwest 379 436 31,500 -1,610 Descending Salt Lake Center
Wed 11:01:04 PM 43.9036 -107.8739 320° Northwest 385 443 28,700 -2,705 Descending Salt Lake Center
Wed 11:02:05 PM 43.9897 -107.9739 320° Northwest 400 460 26,000 -2,634 Descending Salt Lake Center
Wed 11:03:07 PM 44.0725 -108.0711 320° Northwest 392 451 23,300 -2,634 Descending Salt Lake Center
Wed 11:04:08 PM 44.1486 -108.1619 319° Northwest 368 423 20,600 -2,607 Descending Salt Lake Center
Wed 11:05:09 PM 44.2217 -108.2481 320° Northwest 351 404 18,000 -2,293 Descending Salt Lake Center
Wed 11:06:11 PM 44.2922 -108.3306 320° Northwest 340 391 15,900 -2,000 Descending Salt Lake Center
Wed 11:07:12 PM 44.3578 -108.4094 319° Northwest 328 377 13,900 -1,967 Descending Salt Lake Center
Wed 11:08:13 PM 44.4189 -108.4828 319° Northwest 311 358 11,900 -1,805 Descending Salt Lake Center
Wed 11:09:15 PM 44.4767 -108.5514 320° Northwest 293 337 10,200 -1,415 Descending Salt Lake Center
Wed 11:10:16 PM 44.5350 -108.6214 319° Northwest 258 297 9,000 -639 Descending Salt Lake Center
Wed 11:11:17 PM 44.5761 -108.6711 319° Northwest 223 257 8,900 -393 Descending Salt Lake Center
Wed 11:12:18 PM 44.6183 -108.7183 321° Northwest 206 237 8,200 -443 Descending Salt Lake Center
Wed 11:13:19 PM 44.6581 -108.7606 323° Northwest 194 223 8,000 -341 Descending Salt Lake Center
Wed 11:14:21 PM 44.6350 -108.8200 241° Southwest 183 211 7,500 -244 Descending Salt Lake Center
Wed 11:15:22 PM 44.6078 -108.8694 232° Southwest 170 196 7,500 -344 Level Salt Lake Center
Wed 11:16:23 PM 44.5792 -108.9211 232° Southwest 167 192 6,800 -787 Descending Salt Lake Center
Wed 11:17:24 PM 44.5525 -108.9697 232° Southwest 164 189 5,900 246 Descending Salt Lake Center
Wed 11:18:25 PM 44.5247 -109.0211 233° Southwest 163 188 7,300 1,328 Climbing Salt Lake Center
Wed 11:19:26 PM 44.4764 -109.0658 213° Southwest 203 234 8,600 1,415 Climbing Salt Lake Center
Wed 11:20:28 PM 44.4419 -108.9700 117° Southeast 235 270 10,200 1,512 Climbing Salt Lake Center
Wed 11:21:29 PM 44.3914 -108.8869 130° Southeast 262 302 11,700 1,475 Climbing Salt Lake Center
Wed 11:22:30 PM 44.3300 -108.8083 137° Southeast 289 333 13,200 1,131 Climbing Salt Lake Center
Wed 11:23:31 PM 44.2708 -108.7500 145° Southeast 281 323 14,000 344 Climbing Salt Lake Center
Wed 11:24:32 PM 44.2006 -108.7108 158° South 276 318 13,900  Descending Salt Lake Center
Wed 11:25:33 PM 44.1406 -108.7394 199° South 284 327 14,000 98 Climbing Salt Lake Center
Wed 11:26:34 PM 44.1864 -108.7950 319° Northwest 277 319 14,100 689 Climbing Salt Lake Center
Wed 11:27:35 PM 44.2567 -108.7592 20° North 270 311 15,400 1,475 Climbing Salt Lake Center
Wed 11:28:36 PM 44.2506 -108.6394 94° East 322 371 17,100 1,659 Climbing Salt Lake Center
Wed 11:29:38 PM 44.1558 -108.5708 153° Southeast 378 435 18,800 2,049 Climbing Salt Lake Center
Wed 11:30:39 PM 44.0533 -108.4764 146° Southeast 373 429 21,300 2,066 Climbing Salt Lake Center
Wed 11:31:40 PM 43.9689 -108.3919 144° Southeast 375 432 23,000 1,230 Climbing Salt Lake Center
Wed 11:32:41 PM 43.8794 -108.3050 145° Southeast 391 450 23,800 787 Climbing Salt Lake Center
Wed 11:33:42 PM 43.7828 -108.2119 145° Southeast 419 482 24,600 787 Climbing Salt Lake Center
Wed 11:34:43 PM 43.6822 -108.1211 147° Southeast 432 497 25,400 787 Climbing Salt Lake Center
Wed 11:35:44 PM 43.5775 -108.0300 148° Southeast 443 510 26,200 934 Climbing Salt Lake Center
Wed 11:36:45 PM 43.4722 -107.9375 147° Southeast 450 518 27,300 984 Climbing Salt Lake Center
Wed 11:37:46 PM 43.3675 -107.8472 148° Southeast 447 514 28,200 787 Climbing Salt Lake Center
Wed 11:38:47 PM 43.2611 -107.7558 148° Southeast 451 519 28,900 836 Climbing Salt Lake Center
Wed 11:39:48 PM 43.1550 -107.6636 148° Southeast 454 522 29,900 1,033 Climbing Salt Lake Center
Wed 11:40:49 PM 43.0292 -107.5553 148° Southeast 448 516 31,000 541 Climbing Salt Lake Center
Wed 11:41:50 PM 42.9233 -107.4642 148° Southeast 450 518 31,000  Level Salt Lake Center
Wed 11:42:51 PM 42.8194 -107.3753 148° Southeast 448 516 31,000  Level Salt Lake Center
Wed 11:43:29 PM 42.7525 -107.3175 148° Southeast 446 513 31,000  Level Denver Center
Wed 11:44:30 PM 42.6506 -107.2308 148° Southeast 446 513 31,000  Level Denver Center
Wed 11:45:31 PM 42.5528 -107.1478 148° Southeast 440 506 31,000  Level Denver Center
Wed 11:46:44 PM 42.4200 -107.0369 148° Southeast 439 505 31,000  Level Denver Center
Wed 11:47:45 PM 42.3203 -106.9536 148° Southeast 440 506 31,000  Level Denver Center
Wed 11:48:46 PM 42.1997 -106.8525 148° Southeast 451 519 31,000  Level Denver Center
Wed 11:49:46 PM 42.0950 -106.7644 148° Southeast 459 528 31,000  Level Denver Center
Wed 11:50:47 PM 41.9853 -106.6750 149° Southeast 472 543 31,000  Level Denver Center
Wed 11:51:48 PM 41.8611 -106.5733 149° Southeast 471 542 31,000  Level Denver Center
Wed 11:52:49 PM 41.7617 -106.4861 147° Southeast 458 527 31,000  Level Denver Center
Wed 11:53:50 PM 41.6494 -106.3825 145° Southeast 445 512 31,000  Level Denver Center
Wed 11:54:51 PM 41.5497 -106.2903 145° Southeast 453 521 31,000  Level Denver Center
Wed 11:55:51 PM 41.4489 -106.1989 146° Southeast 458 527 31,000  Level Denver Center
Wed 11:56:52 PM 41.3333 -106.0947 146° Southeast 452 520 31,000  Level Denver Center
Wed 11:57:53 PM 41.2347 -106.0056 146° Southeast 450 518 31,000  Level Denver Center
Wed 11:58:54 PM 41.1344 -105.9144 146° Southeast 455 524 31,000 -98 Level Denver Center
Wed 11:59:55 PM 41.0181 -105.8119 146° Southeast 452 520 30,800 -992 Descending Denver Center
Thu 12:00:55 AM 40.9144 -105.7175 145° Southeast 449 517 29,000 -1,835 Descending Denver Center
Thu 12:01:56 AM 40.8147 -105.6306 147° Southeast 437 503 27,100 -1,770 Descending Denver Center
Thu 12:02:57 AM 40.7206 -105.5458 146° Southeast 416 479 25,400 -1,672 Descending Denver Center
Thu 12:03:58 AM 40.6269 -105.4636 146° Southeast 407 468 23,700 -1,574 Descending Denver Center
Thu 12:04:59 AM 40.5583 -105.3561 130° Southeast 391 450 22,200 -1,388 Descending Denver Center
Thu 12:05:59 AM 40.5000 -105.2519 126° Southeast 361 415 20,900 -1,537 Descending Denver Center
Thu 12:07:00 AM 40.4136 -105.1758 146° Southeast 344 396 19,100 -1,525 Descending Denver Center
Thu 12:08:01 AM 40.3350 -105.1106 148° Southeast 338 389 17,800 -1,377 Descending Denver Center
Thu 12:09:02 AM 40.2564 -105.0500 150° Southeast 329 379 16,300 -1,488 Descending Denver Center
Thu 12:10:02 AM 40.1808 -104.9875 148° Southeast 323 372 14,800 -1,091 Descending Denver Center
Thu 12:11:03 AM 40.1042 -104.9278 149° Southeast 322 371 14,100 -689 Descending Denver Center
Thu 12:12:04 AM 40.0336 -104.8708 148° Southeast 302 348 13,400 -843 Descending Denver Center
Thu 12:13:04 AM 39.9592 -104.8122 149° Southeast 293 337 12,400 -992 Descending Denver Center
Thu 12:14:05 AM 39.8842 -104.8000 173° South 274 315 11,400 -1,180 Descending Denver Center
Thu 12:15:06 AM 39.8097 -104.7922 175° South 272 313 10,000 -1,377 Descending Denver Center
Thu 12:16:07 AM 39.7389 -104.7817 173° South 263 303 8,600 -992 Descending Denver Center
Thu 12:17:07 AM 39.6694 -104.7439 157° South 252 290 8,000 -298 Descending Denver Center
Thu 12:18:08 AM 39.6583 -104.6736 102° East 212 244 8,000 -148 Level Denver Center
Thu 12:19:09 AM 39.7133 -104.6608 10° North 213 245 7,700 -545 Descending Denver Center
Thu 12:20:09 AM 39.7619 -104.6622 359° North 178 205 6,900 -793 Descending Denver Center
Thu 12:21:10 AM 39.8003 -104.6608 North 143 165 6,100 -689 Descending Denver Center
Thu 12:22:11 AM 39.8389 -104.6600 North 137 158 5,500 -590 Descending Denver Center
Thu 12:24:00 AM 39.8500 -104.6667 355° North  Level FlightAware Approximate
Thu 12:31:00 AM 39.8617 -104.6732 355° North  Level Estimated
Thu 12:32:00 AM 39.8617 -104.6732 355° North  Level Estimated

Login

Don't have an account? Register now (free) for customized features, flight alerts, and more!